Time,TemperatureF,DewpointF,PressureIn,WindDirection,WindDirectionDegrees,WindSpeedMPH,WindSpeedGustMPH,Humidity,HourlyPrecipIn,Conditions,Clouds,dailyrainin,SoftwareType,DateUTC
2013-01-31 00:04:00,56.8,55.7,29.03,ENE,72,15.4,24.2,96,0.00,,---,0.00,VWS V13.01,2013-01-31 05:04:00,
2013-01-31 00:09:00,57.0,55.9,29.03,North,6,14.5,17.4,96,0.00,,---,0.00,VWS V13.01,2013-01-31 05:09:00,
2013-01-31 00:14:00,57.0,55.9,29.00,SE,140,4.0,15.4,96,0.00,,---,0.00,VWS V13.01,2013-01-31 05:14:00,
2013-01-31 00:19:00,57.0,55.9,29.00,East,81,12.8,17.0,96,0.00,,---,0.00,VWS V13.01,2013-01-31 05:19:00,
2013-01-31 00:24:00,57.0,55.9,29.00,East,85,15.4,23.7,96,0.00,,---,0.00,VWS V13.01,2013-01-31 05:24:00,
2013-01-31 00:29:00,57.0,55.9,29.00,ENE,68,12.8,22.8,96,0.00,,---,0.00,VWS V13.01,2013-01-31 05:29:00,
2013-01-31 00:34:00,57.0,55.9,29.00,ENE,77,4.0,22.8,96,0.00,,---,0.00,VWS V13.01,2013-01-31 05:34:00,
2013-01-31 00:39:00,57.0,55.9,29.00,ENE,58,15.4,19.2,96,0.04,,---,0.04,VWS V13.01,2013-01-31 05:39:00,
2013-01-31 00:45:00,57.2,55.8,28.97,NE,41,5.8,20.6,95,0.04,,---,0.04,VWS V13.01,2013-01-31 05:45:00,
2013-01-31 00:49:00,57.2,55.8,28.97,ESE,103,17.4,21.0,95,0.08,,---,0.08,VWS V13.01,2013-01-31 05:49:00,
2013-01-31 00:54:00,57.0,55.9,28.97,NNW,342,13.2,17.4,96,0.08,,---,0.08,VWS V13.01,2013-01-31 05:54:00,
2013-01-31 00:59:00,57.0,55.6,28.97,ENE,59,17.4,17.4,95,0.16,,---,0.16,VWS V13.01,2013-01-31 05:59:00,
2013-01-31 01:04:00,57.0,55.6,28.97,ENE,60,16.8,17.4,95,0.24,,---,0.24,VWS V13.01,2013-01-31 06:04:00,
2013-01-31 01:14:00,57.0,55.6,28.94,ENE,64,7.6,19.7,95,0.28,,---,0.28,VWS V13.01,2013-01-31 06:14:00,
2013-01-31 01:19:00,57.0,55.3,28.94,SSE,155,3.1,13.2,94,0.28,,---,0.28,VWS V13.01,2013-01-31 06:19:00,
2013-01-31 01:24:00,56.8,55.1,28.94,NE,40,17.4,23.7,94,0.28,,---,0.28,VWS V13.01,2013-01-31 06:24:00,
2013-01-31 01:34:00,56.8,54.5,28.94,ESE,103,7.2,23.3,92,0.28,,---,0.28,VWS V13.01,2013-01-31 06:34:00,
2013-01-31 01:39:00,56.7,54.1,28.94,NW,317,12.3,19.7,91,0.28,,---,0.28,VWS V13.01,2013-01-31 06:39:00,
2013-01-31 01:44:00,56.7,54.1,28.94,East,99,5.8,22.4,91,0.24,,---,0.28,VWS V13.01,2013-01-31 06:44:00,
2013-01-31 01:49:00,56.5,53.6,28.91,ESE,114,10.5,21.5,90,0.24,,---,0.28,VWS V13.01,2013-01-31 06:49:00,
2013-01-31 01:54:00,56.5,53.6,28.91,NE,49,16.3,25.5,90,0.20,,---,0.28,VWS V13.01,2013-01-31 06:54:00,
2013-01-31 01:59:00,56.7,53.8,28.91,East,96,7.2,28.0,90,0.24,,---,0.31,VWS V13.01,2013-01-31 06:59:00,
2013-01-31 02:09:00,56.7,53.8,28.91,North,10,7.6,17.4,90,0.08,,---,0.31,VWS V13.01,2013-01-31 07:09:00,
2013-01-31 02:14:00,56.7,53.8,28.88,ENE,61,8.7,21.5,90,0.08,,---,0.31,VWS V13.01,2013-01-31 07:14:00,
2013-01-31 02:19:00,56.7,54.1,28.88,SE,140,9.6,16.3,91,0.04,,---,0.31,VWS V13.01,2013-01-31 07:19:00,
2013-01-31 02:24:00,56.7,54.1,28.88,NE,35,11.0,21.9,91,0.08,,---,0.35,VWS V13.01,2013-01-31 07:24:00,
2013-01-31 02:29:00,56.7,54.1,28.85,ENE,57,8.7,16.8,91,0.08,,---,0.35,VWS V13.01,2013-01-31 07:29:00,
2013-01-31 02:34:00,56.8,54.2,28.85,East,92,8.1,15.9,91,0.08,,---,0.35,VWS V13.01,2013-01-31 07:34:00,
2013-01-31 02:39:00,57.0,54.7,28.85,NNE,28,3.6,17.0,92,0.08,,---,0.35,VWS V13.01,2013-01-31 07:39:00,
2013-01-31 02:44:00,57.2,54.9,28.82,ENE,58,11.0,21.9,92,0.12,,---,0.39,VWS V13.01,2013-01-31 07:44:00,
2013-01-31 02:54:00,58.1,55.8,28.82,ENE,69,8.1,24.2,92,0.12,,---,0.39,VWS V13.01,2013-01-31 07:54:00,
2013-01-31 02:59:00,58.3,56.0,28.79,North,2,10.1,22.8,92,0.12,,---,0.39,VWS V13.01,2013-01-31 07:59:00,
2013-01-31 03:04:00,58.6,56.0,28.79,ESE,108,12.8,19.7,91,0.12,,---,0.43,VWS V13.01,2013-01-31 08:04:00,
2013-01-31 03:09:00,58.6,55.7,28.79,NE,36,11.0,23.3,90,0.12,,---,0.43,VWS V13.01,2013-01-31 08:09:00,
2013-01-31 03:14:00,58.6,55.4,28.79,ESE,103,9.2,23.3,89,0.12,,---,0.43,VWS V13.01,2013-01-31 08:14:00,
2013-01-31 03:19:00,58.8,55.6,28.79,NNE,21,20.6,27.1,89,0.12,,---,0.43,VWS V13.01,2013-01-31 08:19:00,
2013-01-31 03:24:00,59.0,55.5,28.79,ENE,73,15.4,24.2,88,0.12,,---,0.43,VWS V13.01,2013-01-31 08:24:00,
2013-01-31 03:30:00,59.2,55.6,28.76,NE,54,27.1,27.1,88,0.08,,---,0.43,VWS V13.01,2013-01-31 08:30:00,
2013-01-31 03:34:00,59.2,55.3,28.76,ENE,60,12.8,27.1,87,0.12,,---,0.47,VWS V13.01,2013-01-31 08:34:00,
2013-01-31 03:39:00,59.4,55.5,28.76,WNW,295,5.8,18.3,87,0.12,,---,0.47,VWS V13.01,2013-01-31 08:39:00,
2013-01-31 03:44:00,59.5,55.3,28.73,NE,40,14.5,23.3,86,0.20,,---,0.55,VWS V13.01,2013-01-31 08:44:00,
2013-01-31 03:49:00,59.5,55.3,28.73,East,95,12.3,26.2,86,0.20,,---,0.59,VWS V13.01,2013-01-31 08:49:00,
2013-01-31 03:54:00,59.7,55.5,28.73,NE,38,19.7,19.7,86,0.24,,---,0.63,VWS V13.01,2013-01-31 08:54:00,
2013-01-31 04:00:00,59.9,56.0,28.73,ESE,112,5.4,22.4,87,0.31,,---,0.71,VWS V13.01,2013-01-31 09:00:00,
2013-01-31 04:09:00,60.4,56.9,28.73,SSW,194,14.5,27.5,88,0.43,,---,0.87,VWS V13.01,2013-01-31 09:09:00,
2013-01-31 04:14:00,60.4,56.6,28.67,North,2,15.4,25.7,87,0.51,,---,0.94,VWS V13.01,2013-01-31 09:14:00,
2013-01-31 04:19:00,60.4,56.2,28.67,SE,140,11.9,27.1,86,0.59,,---,1.02,VWS V13.01,2013-01-31 09:19:00,
2013-01-31 04:29:00,60.4,56.6,28.67,SE,126,8.3,26.2,87,0.71,,---,1.14,VWS V13.01,2013-01-31 09:29:00,
2013-01-31 04:34:00,60.6,56.4,28.67,ESE,118,28.4,28.9,86,0.75,,---,1.18,VWS V13.01,2013-01-31 09:34:00,
2013-01-31 04:44:00,60.4,55.9,28.73,ESE,116,12.8,28.4,85,0.94,,---,1.42,VWS V13.01,2013-01-31 09:44:00,
2013-01-31 04:49:00,59.5,54.0,28.73,East,83,8.7,28.0,82,0.91,,---,1.46,VWS V13.01,2013-01-31 09:49:00,
2013-01-31 04:54:00,58.8,52.7,28.73,East,89,11.0,16.8,80,0.87,,---,1.46,VWS V13.01,2013-01-31 09:54:00,
2013-01-31 05:04:00,58.1,51.3,28.73,SE,124,7.6,13.2,78,0.75,,---,1.46,VWS V13.01,2013-01-31 10:04:00,
2013-01-31 05:09:00,57.9,51.1,28.73,East,87,6.3,11.0,78,0.67,,---,1.46,VWS V13.01,2013-01-31 10:09:00,
2013-01-31 05:14:00,57.9,51.5,28.73,East,86,10.1,13.2,79,0.59,,---,1.46,VWS V13.01,2013-01-31 10:14:00,
2013-01-31 05:19:00,57.7,51.6,28.73,ESE,117,5.4,13.2,80,0.51,,---,1.46,VWS V13.01,2013-01-31 10:19:00,
2013-01-31 05:29:00,57.7,52.0,28.73,ESE,107,6.7,10.1,81,0.39,,---,1.50,VWS V13.01,2013-01-31 10:29:00,
2013-01-31 05:34:00,57.6,51.8,28.73,NE,39,5.8,11.0,81,0.35,,---,1.50,VWS V13.01,2013-01-31 10:34:00,
2013-01-31 05:39:00,57.6,51.8,28.73,NE,42,0.0,8.3,81,0.35,,---,1.54,VWS V13.01,2013-01-31 10:39:00,
2013-01-31 05:44:00,57.4,51.9,28.70,NE,44,5.8,11.0,82,0.31,,---,1.54,VWS V13.01,2013-01-31 10:44:00,
2013-01-31 05:54:00,57.2,52.1,28.70,East,79,10.1,10.1,83,0.08,,---,1.54,VWS V13.01,2013-01-31 10:54:00,
2013-01-31 05:59:00,57.0,51.9,28.70,ENE,70,8.3,10.1,83,0.12,,---,1.57,VWS V13.01,2013-01-31 10:59:00,
2013-01-31 06:04:00,56.8,51.7,28.70,North,9,8.3,8.7,83,0.12,,---,1.57,VWS V13.01,2013-01-31 11:04:00,
2013-01-31 06:09:00,56.7,51.9,28.70,East,82,3.6,8.7,84,0.12,,---,1.57,VWS V13.01,2013-01-31 11:09:00,
2013-01-31 06:19:00,56.3,51.5,28.64,ENE,74,4.0,6.7,84,0.12,,---,1.57,VWS V13.01,2013-01-31 11:19:00,
2013-01-31 06:24:00,56.3,51.5,28.64,NE,42,2.7,8.3,84,0.12,,---,1.57,VWS V13.01,2013-01-31 11:24:00,
2013-01-31 06:29:00,56.3,51.5,28.67,East,82,3.6,6.3,84,0.08,,---,1.57,VWS V13.01,2013-01-31 11:29:00,
2013-01-31 06:34:00,56.3,51.9,28.67,NE,54,3.1,11.0,85,0.08,,---,1.57,VWS V13.01,2013-01-31 11:34:00,
2013-01-31 06:39:00,56.1,51.7,28.67,NE,52,5.8,5.8,85,0.08,,---,1.57,VWS V13.01,2013-01-31 11:39:00,
2013-01-31 06:44:00,56.1,51.7,28.67,NE,35,6.3,10.1,85,0.04,,---,1.57,VWS V13.01,2013-01-31 11:44:00,
2013-01-31 06:49:00,55.9,51.5,28.67,ENE,59,3.6,7.6,85,0.04,,---,1.57,VWS V13.01,2013-01-31 11:49:00,
2013-01-31 06:54:00,55.9,51.5,28.67,ENE,72,5.4,8.7,85,0.04,,---,1.57,VWS V13.01,2013-01-31 11:54:00,
2013-01-31 06:59:00,55.9,51.5,28.67,NNE,31,6.3,10.5,85,0.04,,---,1.57,VWS V13.01,2013-01-31 11:59:00,
2013-01-31 07:04:00,55.8,51.3,28.67,ENE,58,2.7,8.7,85,0.00,,---,1.57,VWS V13.01,2013-01-31 12:04:00,
2013-01-31 07:09:00,55.6,51.2,28.67,NE,36,5.4,8.7,85,0.00,,---,1.57,VWS V13.01,2013-01-31 12:09:00,
2013-01-31 07:14:00,55.6,51.2,28.67,ENE,76,4.0,8.7,85,0.00,,---,1.57,VWS V13.01,2013-01-31 12:14:00,
2013-01-31 07:19:00,55.4,51.0,28.67,NE,50,8.1,8.7,85,0.00,,---,1.57,VWS V13.01,2013-01-31 12:19:00,
2013-01-31 07:24:00,55.4,50.7,28.67,East,85,4.0,10.5,84,0.00,,---,1.57,VWS V13.01,2013-01-31 12:24:00,
2013-01-31 07:29:00,55.4,50.7,28.67,ENE,62,4.0,15.0,84,0.00,,---,1.57,VWS V13.01,2013-01-31 12:29:00,
2013-01-31 07:34:00,55.0,50.0,28.67,ESE,119,13.2,18.3,83,0.00,,---,1.57,VWS V13.01,2013-01-31 12:34:00,
2013-01-31 07:39:00,54.5,47.8,28.67,South,183,15.0,21.5,78,0.00,,---,1.57,VWS V13.01,2013-01-31 12:39:00,
2013-01-31 07:44:00,52.3,34.3,28.70,South,172,13.2,23.7,50,0.00,,---,1.57,VWS V13.01,2013-01-31 12:44:00,
2013-01-31 07:49:00,51.6,31.5,28.70,SW,225,10.1,22.8,46,0.00,,---,1.57,VWS V13.01,2013-01-31 12:49:00,
2013-01-31 07:54:00,51.4,30.3,28.70,ESE,120,11.9,17.9,44,0.00,,---,1.57,VWS V13.01,2013-01-31 12:54:00,
2013-01-31 07:59:00,51.4,29.7,28.73,SSE,149,11.0,23.7,43,0.00,,---,1.57,VWS V13.01,2013-01-31 12:59:00,
2013-01-31 08:04:00,51.3,27.8,28.73,SSE,160,8.3,22.4,40,0.00,,---,1.57,VWS V13.01,2013-01-31 13:04:00,
2013-01-31 08:09:00,51.1,27.6,28.73,SSE,163,8.7,14.1,40,0.00,,---,1.57,VWS V13.01,2013-01-31 13:09:00,
2013-01-31 08:14:00,50.7,27.3,28.73,South,185,8.1,18.3,40,0.00,,---,1.57,VWS V13.01,2013-01-31 13:14:00,
2013-01-31 08:19:00,50.5,27.1,28.73,South,183,0.0,12.3,40,0.00,,---,1.57,VWS V13.01,2013-01-31 13:19:00,
2013-01-31 08:25:00,50.2,26.8,28.73,SSE,158,6.3,15.4,40,0.00,,---,1.57,VWS V13.01,2013-01-31 13:25:00,
2013-01-31 08:29:00,50.2,26.8,28.73,SE,140,3.1,11.0,40,0.00,,---,1.57,VWS V13.01,2013-01-31 13:29:00,
2013-01-31 08:34:00,50.5,27.7,28.73,ENE,71,6.3,8.7,41,0.00,,---,1.57,VWS V13.01,2013-01-31 13:34:00,
2013-01-31 08:39:00,50.5,27.1,28.73,SSW,206,5.8,11.4,40,0.00,,---,1.57,VWS V13.01,2013-01-31 13:39:00,
2013-01-31 08:44:00,50.5,26.5,28.76,SSE,168,10.1,10.1,39,0.00,,---,1.57,VWS V13.01,2013-01-31 13:44:00,
2013-01-31 08:49:00,50.4,25.7,28.76,South,173,6.3,13.2,38,0.00,,---,1.57,VWS V13.01,2013-01-31 13:49:00,
2013-01-31 08:54:00,50.0,25.4,28.76,South,179,11.0,15.4,38,0.00,,---,1.57,VWS V13.01,2013-01-31 13:54:00,
2013-01-31 08:59:00,50.0,24.8,28.79,SSE,158,8.3,13.2,37,0.00,,---,1.57,VWS V13.01,2013-01-31 13:59:00,
2013-01-31 09:04:00,49.6,24.5,28.79,SSW,203,9.6,12.8,37,0.00,,---,1.57,VWS V13.01,2013-01-31 14:04:00,
2013-01-31 09:09:00,49.3,22.8,28.79,SE,146,3.1,12.8,35,0.00,,---,1.57,VWS V13.01,2013-01-31 14:09:00,
2013-01-31 09:14:00,48.9,23.2,28.82,SE,129,6.3,17.9,36,0.00,,---,1.57,VWS V13.01,2013-01-31 14:14:00,
2013-01-31 09:19:00,48.7,23.0,28.82,SSW,202,8.7,10.5,36,0.00,,---,1.57,VWS V13.01,2013-01-31 14:19:00,
2013-01-31 09:24:00,48.4,22.7,28.82,South,174,11.4,12.8,36,0.00,,---,1.57,VWS V13.01,2013-01-31 14:24:00,
2013-01-31 09:29:00,47.7,20.7,28.85,SSE,156,8.3,17.9,34,0.00,,---,1.57,VWS V13.01,2013-01-31 14:29:00,
2013-01-31 09:39:00,47.7,18.5,28.85,SSW,198,8.7,13.2,31,0.00,,---,1.57,VWS V13.01,2013-01-31 14:39:00,
2013-01-31 09:49:00,47.8,16.3,28.85,South,182,10.1,14.1,28,0.00,,---,1.57,VWS V13.01,2013-01-31 14:49:00,
2013-01-31 09:54:00,47.7,16.2,28.85,SSE,165,10.1,17.0,28,0.00,,---,1.57,VWS V13.01,2013-01-31 14:54:00,
2013-01-31 09:59:00,47.7,15.3,28.88,SSW,198,6.3,15.4,27,0.00,,---,1.57,VWS V13.01,2013-01-31 14:59:00,
2013-01-31 10:04:00,47.3,15.0,28.88,SSE,150,7.6,18.8,27,0.00,,---,1.57,VWS V13.01,2013-01-31 15:04:00,
2013-01-31 10:14:00,46.2,14.9,28.91,SSE,160,10.5,18.8,28,0.00,,---,1.57,VWS V13.01,2013-01-31 15:14:00,
2013-01-31 10:19:00,46.2,15.7,28.91,South,171,12.8,15.4,29,0.00,,---,1.57,VWS V13.01,2013-01-31 15:19:00,
2013-01-31 10:25:00,46.2,15.7,28.91,ESE,115,23.7,24.2,29,0.00,,---,1.57,VWS V13.01,2013-01-31 15:25:00,
2013-01-31 10:29:00,46.0,14.8,28.91,SSE,156,8.1,23.7,28,0.00,,---,1.57,VWS V13.01,2013-01-31 15:29:00,
2013-01-31 10:34:00,46.2,14.9,28.91,East,83,11.0,20.6,28,0.00,,---,1.57,VWS V13.01,2013-01-31 15:34:00,
2013-01-31 10:39:00,46.4,15.1,28.91,SSW,195,13.2,19.7,28,0.00,,---,1.57,VWS V13.01,2013-01-31 15:39:00,
2013-01-31 10:44:00,46.0,14.8,28.94,East,99,14.5,25.5,28,0.00,,---,1.57,VWS V13.01,2013-01-31 15:44:00,
2013-01-31 10:49:00,45.5,14.3,28.94,South,180,5.8,19.2,28,0.00,,---,1.57,VWS V13.01,2013-01-31 15:49:00,
2013-01-31 10:54:00,45.1,14.0,28.94,SE,126,7.6,12.3,28,0.00,,---,1.57,VWS V13.01,2013-01-31 15:54:00,
2013-01-31 10:59:00,45.7,14.5,28.94,South,173,8.7,17.9,28,0.00,,---,1.57,VWS V13.01,2013-01-31 15:59:00,
2013-01-31 11:04:00,46.2,14.9,28.94,South,170,7.6,17.0,28,0.00,,---,1.57,VWS V13.01,2013-01-31 16:04:00,
2013-01-31 11:09:00,45.9,13.8,28.94,SE,128,4.0,17.0,27,0.00,,---,1.57,VWS V13.01,2013-01-31 16:09:00,
2013-01-31 11:14:00,46.0,13.9,28.94,SSE,162,15.0,17.9,27,0.00,,---,1.57,VWS V13.01,2013-01-31 16:14:00,
2013-01-31 11:19:00,46.4,14.2,28.94,ESE,121,6.3,18.3,27,0.00,,---,1.57,VWS V13.01,2013-01-31 16:19:00,
2013-01-31 11:25:00,46.8,11.9,28.94,South,171,11.0,32.4,24,0.00,,---,1.57,VWS V13.01,2013-01-31 16:25:00,
2013-01-31 11:29:00,45.7,11.9,28.94,South,186,8.7,25.1,25,0.00,,---,1.57,VWS V13.01,2013-01-31 16:29:00,
2013-01-31 11:34:00,45.5,11.7,28.94,SSE,159,10.1,19.7,25,0.00,,---,1.57,VWS V13.01,2013-01-31 16:34:00,
2013-01-31 11:44:00,44.8,8.3,28.94,South,173,12.8,24.6,22,0.00,,---,1.57,VWS V13.01,2013-01-31 16:44:00,
2013-01-31 11:49:00,44.6,11.0,28.94,SSE,168,10.5,13.2,25,0.00,,---,1.57,VWS V13.01,2013-01-31 16:49:00,
2013-01-31 11:54:00,44.6,11.0,28.94,SSE,167,11.0,13.2,25,0.00,,---,1.57,VWS V13.01,2013-01-31 16:54:00,
2013-01-31 12:00:00,44.6,11.0,28.97,ESE,109,12.3,12.8,25,0.00,,---,1.57,VWS V13.01,2013-01-31 17:00:00,
2013-01-31 12:04:00,44.2,8.8,28.97,ESE,113,8.3,12.3,23,0.00,,---,1.57,VWS V13.01,2013-01-31 17:04:00,
2013-01-31 12:09:00,44.1,8.6,28.97,ESE,108,13.2,15.0,23,0.00,,---,1.57,VWS V13.01,2013-01-31 17:09:00,
2013-01-31 12:14:00,44.1,8.6,28.97,South,179,12.3,13.2,23,0.00,,---,1.57,VWS V13.01,2013-01-31 17:14:00,
2013-01-31 12:19:00,44.6,8.1,28.97,SSE,150,10.1,17.0,22,0.00,,---,1.57,VWS V13.01,2013-01-31 17:19:00,
2013-01-31 12:24:00,45.7,9.0,28.97,West,277,4.9,15.9,22,0.00,,---,1.57,VWS V13.01,2013-01-31 17:24:00,
2013-01-31 12:29:00,46.6,9.8,28.97,SSW,207,8.1,13.2,22,0.00,,---,1.57,VWS V13.01,2013-01-31 17:29:00,
2013-01-31 12:34:00,46.4,9.6,28.97,SE,131,13.2,23.3,22,0.00,,---,1.57,VWS V13.01,2013-01-31 17:34:00,
2013-01-31 12:39:00,46.4,9.6,28.97,East,86,8.1,17.4,22,0.00,,---,1.57,VWS V13.01,2013-01-31 17:39:00,
2013-01-31 12:44:00,46.8,9.9,28.97,SSE,160,6.7,15.4,22,0.00,,---,1.57,VWS V13.01,2013-01-31 17:44:00,
2013-01-31 12:49:00,47.5,10.6,28.97,East,87,13.6,18.3,22,0.00,,---,1.57,VWS V13.01,2013-01-31 17:49:00,
2013-01-31 12:54:00,47.7,10.7,28.97,SW,216,10.5,19.7,22,0.00,,---,1.57,VWS V13.01,2013-01-31 17:54:00,
2013-01-31 13:00:00,47.1,10.2,29.00,SW,226,5.8,17.4,22,0.00,,---,1.57,VWS V13.01,2013-01-31 18:00:00,
2013-01-31 13:04:00,46.0,9.3,29.00,South,188,6.3,25.5,22,0.00,,---,1.57,VWS V13.01,2013-01-31 18:04:00,
2013-01-31 13:09:00,45.5,8.9,29.00,SW,222,11.4,17.9,22,0.00,,---,1.57,VWS V13.01,2013-01-31 18:09:00,
2013-01-31 13:14:00,46.8,9.9,29.00,SSW,207,9.6,17.0,22,0.00,,---,1.57,VWS V13.01,2013-01-31 18:14:00,
2013-01-31 13:19:00,47.1,7.0,29.00,South,175,17.4,17.4,19,0.00,,---,1.57,VWS V13.01,2013-01-31 18:19:00,
2013-01-31 13:24:00,47.7,7.4,29.00,SSW,202,13.2,17.4,19,0.00,,---,1.57,VWS V13.01,2013-01-31 18:24:00,
2013-01-31 13:34:00,48.2,7.9,29.00,West,264,7.6,14.1,19,0.00,,---,1.57,VWS V13.01,2013-01-31 18:34:00,
2013-01-31 13:39:00,49.3,8.8,29.00,South,184,5.8,11.4,19,0.00,,---,1.57,VWS V13.01,2013-01-31 18:39:00,
2013-01-31 13:44:00,49.5,8.9,29.00,SSE,154,5.4,13.2,19,0.00,,---,1.57,VWS V13.01,2013-01-31 18:44:00,
2013-01-31 13:49:00,49.8,9.2,29.00,SSE,153,6.3,12.8,19,0.00,,---,1.57,VWS V13.01,2013-01-31 18:49:00,
2013-01-31 13:54:00,50.0,9.4,29.00,WSW,258,11.0,11.9,19,0.00,,---,1.57,VWS V13.01,2013-01-31 18:54:00,
2013-01-31 13:59:00,50.2,9.5,29.00,South,181,6.3,17.4,19,0.00,,---,1.57,VWS V13.01,2013-01-31 18:59:00,
2013-01-31 14:04:00,50.4,9.7,29.00,SSW,211,12.3,15.0,19,0.00,,---,1.57,VWS V13.01,2013-01-31 19:04:00,
2013-01-31 14:09:00,50.0,9.4,29.00,SSW,210,10.5,16.8,19,0.00,,---,1.57,VWS V13.01,2013-01-31 19:09:00,
2013-01-31 14:14:00,50.4,9.7,29.03,SSW,208,5.4,13.6,19,0.00,,---,1.57,VWS V13.01,2013-01-31 19:14:00,
2013-01-31 14:19:00,49.6,9.1,29.03,SSE,158,8.3,12.3,19,0.00,,---,1.57,VWS V13.01,2013-01-31 19:19:00,
2013-01-31 14:24:00,48.7,8.3,29.03,ESE,111,8.7,17.4,19,0.00,,---,1.57,VWS V13.01,2013-01-31 19:24:00,
2013-01-31 14:29:00,49.5,8.9,29.03,SSE,164,5.8,13.2,19,0.00,,---,1.57,VWS V13.01,2013-01-31 19:29:00,
2013-01-31 14:34:00,49.6,9.1,29.03,SE,130,3.6,11.0,19,0.00,,---,1.57,VWS V13.01,2013-01-31 19:34:00,
2013-01-31 14:44:00,48.2,7.9,29.03,SE,146,8.1,15.4,19,0.00,,---,1.57,VWS V13.01,2013-01-31 19:44:00,
2013-01-31 14:49:00,48.2,7.9,29.03,SSE,157,10.5,13.2,19,0.00,,---,1.57,VWS V13.01,2013-01-31 19:49:00,
2013-01-31 14:59:00,47.5,7.3,29.06,SSE,166,6.3,19.7,19,0.00,,---,1.57,VWS V13.01,2013-01-31 19:59:00,
2013-01-31 15:10:00,45.9,7.1,29.06,SSE,159,4.0,15.0,20,0.00,,---,1.57,VWS V13.01,2013-01-31 20:10:00,
2013-01-31 15:14:00,45.3,6.6,29.06,South,177,6.3,17.4,20,0.00,,---,1.57,VWS V13.01,2013-01-31 20:14:00,
2013-01-31 15:19:00,44.8,6.2,29.06,ESE,120,7.6,10.1,20,0.00,,---,1.57,VWS V13.01,2013-01-31 20:19:00,
2013-01-31 15:24:00,45.1,6.5,29.06,South,175,15.0,16.3,20,0.00,,---,1.57,VWS V13.01,2013-01-31 20:24:00,
2013-01-31 15:29:00,46.0,7.2,29.06,SE,145,11.0,15.0,20,0.00,,---,1.57,VWS V13.01,2013-01-31 20:29:00,
2013-01-31 15:34:00,45.9,7.1,29.06,South,170,8.7,21.9,20,0.00,,---,1.57,VWS V13.01,2013-01-31 20:34:00,
2013-01-31 15:39:00,45.9,7.1,29.06,South,171,8.1,16.8,20,0.00,,---,1.57,VWS V13.01,2013-01-31 20:39:00,
2013-01-31 15:44:00,45.5,6.8,29.09,SSE,167,8.3,13.2,20,0.00,,---,1.57,VWS V13.01,2013-01-31 20:44:00,
2013-01-31 15:49:00,43.9,5.4,29.09,SSE,167,8.3,21.5,20,0.00,,---,1.57,VWS V13.01,2013-01-31 20:49:00,
2013-01-31 15:59:00,42.8,4.5,29.09,SSE,151,10.1,15.4,20,0.00,,---,1.57,VWS V13.01,2013-01-31 20:59:00,
2013-01-31 16:09:00,42.3,5.1,29.09,South,176,8.7,16.8,21,0.00,,---,1.57,VWS V13.01,2013-01-31 21:09:00,
2013-01-31 16:14:00,42.1,5.0,29.09,East,88,7.6,13.2,21,0.00,,---,1.57,VWS V13.01,2013-01-31 21:14:00,
2013-01-31 16:19:00,41.7,4.7,29.09,ESE,115,11.0,15.4,21,0.00,,---,1.57,VWS V13.01,2013-01-31 21:19:00,
2013-01-31 16:24:00,41.5,4.5,29.09,SSE,148,3.6,12.8,21,0.00,,---,1.57,VWS V13.01,2013-01-31 21:24:00,
2013-01-31 16:29:00,41.4,4.4,29.09,SSW,198,8.7,15.0,21,0.00,,---,1.57,VWS V13.01,2013-01-31 21:29:00,
2013-01-31 16:34:00,41.2,4.2,29.09,South,180,12.3,15.9,21,0.00,,---,1.57,VWS V13.01,2013-01-31 21:34:00,
2013-01-31 16:39:00,41.0,4.1,29.09,SSE,149,7.6,13.2,21,0.00,,---,1.57,VWS V13.01,2013-01-31 21:39:00,
2013-01-31 16:45:00,40.6,3.8,29.12,South,174,3.1,20.6,21,0.00,,---,1.57,VWS V13.01,2013-01-31 21:45:00,
2013-01-31 16:49:00,40.5,3.6,29.12,SE,136,12.8,17.9,21,0.00,,---,1.57,VWS V13.01,2013-01-31 21:49:00,
2013-01-31 16:54:00,40.3,3.5,29.12,NE,42,6.3,12.8,21,0.00,,---,1.57,VWS V13.01,2013-01-31 21:54:00,
2013-01-31 16:59:00,40.3,3.5,29.12,SSE,161,2.7,15.4,21,0.00,,---,1.57,VWS V13.01,2013-01-31 21:59:00,
2013-01-31 17:04:00,40.3,3.5,29.12,SSE,160,5.8,8.7,21,0.00,,---,1.57,VWS V13.01,2013-01-31 22:04:00,
2013-01-31 17:09:00,39.7,3.0,29.12,South,178,8.7,15.0,21,0.00,,---,1.57,VWS V13.01,2013-01-31 22:09:00,
2013-01-31 17:14:00,39.6,2.9,29.15,SSW,199,5.4,13.2,21,0.00,,---,1.57,VWS V13.01,2013-01-31 22:14:00,
2013-01-31 17:19:00,39.2,2.6,29.15,SSE,158,8.1,15.4,21,0.00,,---,1.57,VWS V13.01,2013-01-31 22:19:00,
2013-01-31 17:29:00,38.7,2.1,29.15,SE,146,10.5,18.3,21,0.00,,---,1.57,VWS V13.01,2013-01-31 22:29:00,
2013-01-31 17:34:00,38.5,2.0,29.15,ESE,116,12.8,16.3,21,0.00,,---,1.57,VWS V13.01,2013-01-31 22:34:00,
2013-01-31 17:44:00,37.9,1.5,29.18,South,181,7.6,18.3,21,0.00,,---,1.57,VWS V13.01,2013-01-31 22:44:00,
2013-01-31 17:54:00,37.6,1.2,29.18,SSE,161,7.2,13.2,21,0.00,,---,1.57,VWS V13.01,2013-01-31 22:54:00,
2013-01-31 17:59:00,37.2,1.9,29.18,SSE,156,13.2,15.0,22,0.00,,---,1.57,VWS V13.01,2013-01-31 22:59:00,
2013-01-31 18:04:00,37.0,1.7,29.18,SSE,149,12.8,15.4,22,0.00,,---,1.57,VWS V13.01,2013-01-31 23:04:00,
2013-01-31 18:09:00,36.9,1.6,29.18,South,174,6.3,15.9,22,0.00,,---,1.57,VWS V13.01,2013-01-31 23:09:00,
2013-01-31 18:19:00,36.7,1.4,29.18,SSE,151,10.1,10.5,22,0.00,,---,1.57,VWS V13.01,2013-01-31 23:19:00,
2013-01-31 18:24:00,36.7,1.4,29.18,SE,142,4.9,14.5,22,0.00,,---,1.57,VWS V13.01,2013-01-31 23:24:00,
2013-01-31 18:29:00,36.5,1.3,29.21,SSE,168,10.1,11.0,22,0.00,,---,1.57,VWS V13.01,2013-01-31 23:29:00,
2013-01-31 18:34:00,36.3,1.1,29.21,SSE,153,5.4,15.0,22,0.00,,---,1.57,VWS V13.01,2013-01-31 23:34:00,
2013-01-31 18:39:00,36.3,1.1,29.21,SW,220,2.7,9.6,22,0.00,,---,1.57,VWS V13.01,2013-01-31 23:39:00,
2013-01-31 18:44:00,36.1,1.0,29.21,SSE,152,5.8,14.5,22,0.00,,---,1.57,VWS V13.01,2013-01-31 23:44:00,
2013-01-31 18:49:00,36.1,1.0,29.21,SSE,154,5.4,14.5,22,0.00,,---,1.57,VWS V13.01,2013-01-31 23:49:00,
2013-01-31 18:54:00,36.0,0.8,29.21,ESE,106,8.1,13.6,22,0.00,,---,1.57,VWS V13.01,2013-01-31 23:54:00,
2013-01-31 18:59:00,35.8,0.7,29.23,SW,229,7.6,17.0,22,0.00,,---,1.57,VWS V13.01,2013-01-31 23:59:00,
2013-01-31 19:05:00,35.6,0.5,29.23,South,169,13.2,13.2,22,0.00,,---,1.57,VWS V13.01,2013-02-01 00:05:00,
2013-01-31 19:09:00,35.6,0.5,29.23,ESE,103,6.7,13.2,22,0.00,,---,1.57,VWS V13.01,2013-02-01 00:09:00,
2013-01-31 19:14:00,35.6,0.5,29.23,SSE,167,5.4,21.0,22,0.00,,---,1.57,VWS V13.01,2013-02-01 00:14:00,
2013-01-31 19:19:00,35.4,0.4,29.23,SE,126,16.8,16.8,22,0.00,,---,1.57,VWS V13.01,2013-02-01 00:19:00,
2013-01-31 19:24:00,35.4,0.4,29.23,SSE,153,10.1,17.4,22,0.00,,---,1.57,VWS V13.01,2013-02-01 00:24:00,
2013-01-31 19:29:00,35.2,0.2,29.23,SSE,158,10.5,12.8,22,0.00,,---,1.57,VWS V13.01,2013-02-01 00:29:00,
2013-01-31 19:34:00,35.2,0.2,29.23,SSW,196,3.6,17.4,22,0.00,,---,1.57,VWS V13.01,2013-02-01 00:34:00,
2013-01-31 19:44:00,34.7,-0.2,29.23,SSE,156,12.8,24.2,22,0.00,,---,1.57,VWS V13.01,2013-02-01 00:44:00,
2013-01-31 19:49:00,34.7,-0.2,29.23,SSE,149,5.8,13.2,22,0.00,,---,1.57,VWS V13.01,2013-02-01 00:49:00,
2013-01-31 19:54:00,34.5,-0.4,29.23,SSE,164,15.0,19.7,22,0.00,,---,1.57,VWS V13.01,2013-02-01 00:54:00,
2013-01-31 19:59:00,34.5,-0.4,29.23,SSE,148,9.6,15.4,22,0.00,,---,1.57,VWS V13.01,2013-02-01 00:59:00,
2013-01-31 20:04:00,34.3,-0.6,29.23,SSE,159,15.9,15.9,22,0.00,,---,1.57,VWS V13.01,2013-02-01 01:04:00,
2013-01-31 20:09:00,34.0,-0.9,29.23,SSE,166,26.2,26.2,22,0.00,,---,1.57,VWS V13.01,2013-02-01 01:09:00,
2013-01-31 20:14:00,33.8,-1.0,29.23,South,178,6.3,26.2,22,0.00,,---,1.57,VWS V13.01,2013-02-01 01:14:00,
2013-01-31 20:19:00,33.6,-0.2,29.23,South,170,14.1,21.5,23,0.00,,---,1.57,VWS V13.01,2013-02-01 01:19:00,
2013-01-31 20:24:00,33.4,-0.4,29.23,SSE,166,4.9,20.1,23,0.00,,---,1.57,VWS V13.01,2013-02-01 01:24:00,
2013-01-31 20:29:00,33.4,-0.4,29.23,SSE,165,10.5,19.7,23,0.00,,---,1.57,VWS V13.01,2013-02-01 01:29:00,
2013-01-31 20:34:00,33.4,-0.4,29.23,SSE,150,6.3,17.0,23,0.00,,---,1.57,VWS V13.01,2013-02-01 01:34:00,
2013-01-31 20:39:00,33.3,-0.5,29.23,SSE,160,8.1,12.8,23,0.00,,---,1.57,VWS V13.01,2013-02-01 01:39:00,
2013-01-31 20:44:00,33.4,-0.4,29.23,SSE,152,7.6,12.8,23,0.00,,---,1.57,VWS V13.01,2013-02-01 01:44:00,
2013-01-31 20:54:00,33.1,-0.7,29.23,SSE,165,10.5,17.0,23,0.00,,---,1.57,VWS V13.01,2013-02-01 01:54:00,
2013-01-31 20:59:00,33.1,-0.7,29.23,SSE,155,5.4,11.0,23,0.00,,---,1.57,VWS V13.01,2013-02-01 01:59:00,
2013-01-31 21:04:00,33.1,-0.7,29.23,ESE,116,7.2,15.4,23,0.00,,---,1.57,VWS V13.01,2013-02-01 02:04:00,
2013-01-31 21:09:00,33.1,-0.7,29.23,South,190,5.8,8.1,23,0.00,,---,1.57,VWS V13.01,2013-02-01 02:09:00,
2013-01-31 21:14:00,33.3,-0.5,29.26,South,190,5.8,11.0,23,0.00,,---,1.57,VWS V13.01,2013-02-01 02:14:00,
2013-01-31 21:20:00,33.3,-0.5,29.26,SSE,163,8.1,10.1,23,0.00,,---,1.57,VWS V13.01,2013-02-01 02:20:00,
2013-01-31 21:24:00,33.1,-0.7,29.26,East,86,5.8,15.4,23,0.00,,---,1.57,VWS V13.01,2013-02-01 02:24:00,
2013-01-31 21:30:00,32.9,-0.8,29.26,East,87,8.3,12.8,23,0.00,,---,1.57,VWS V13.01,2013-02-01 02:30:00,
2013-01-31 21:34:00,32.9,-0.8,29.26,SE,146,7.6,12.3,23,0.00,,---,1.57,VWS V13.01,2013-02-01 02:34:00,
2013-01-31 21:44:00,32.7,-1.0,29.26,SSW,193,4.0,13.6,23,0.00,,---,1.57,VWS V13.01,2013-02-01 02:44:00,
2013-01-31 21:54:00,32.7,-1.0,29.26,ENE,75,8.7,13.2,23,0.00,,---,1.57,VWS V13.01,2013-02-01 02:54:00,
2013-01-31 21:59:00,32.4,-1.3,29.26,South,186,2.7,15.0,23,0.00,,---,1.57,VWS V13.01,2013-02-01 02:59:00,
2013-01-31 22:05:00,32.2,-1.4,29.26,ESE,105,4.0,8.1,23,0.00,,---,1.57,VWS V13.01,2013-02-01 03:05:00,
2013-01-31 22:09:00,32.0,-1.6,29.26,South,180,5.4,11.4,23,0.00,,---,1.57,VWS V13.01,2013-02-01 03:09:00,
2013-01-31 22:14:00,32.0,-1.6,29.26,SE,129,7.6,10.1,23,0.00,,---,1.57,VWS V13.01,2013-02-01 03:14:00,
2013-01-31 22:19:00,31.6,-1.9,29.26,SSE,155,11.0,14.5,23,0.00,,---,1.57,VWS V13.01,2013-02-01 03:19:00,
2013-01-31 22:24:00,31.3,-2.2,29.26,ESE,113,8.1,17.0,23,0.00,,---,1.57,VWS V13.01,2013-02-01 03:24:00,
2013-01-31 22:29:00,31.3,-2.2,29.26,SE,135,3.1,11.0,23,0.00,,---,1.57,VWS V13.01,2013-02-01 03:29:00,
2013-01-31 22:34:00,31.1,-2.4,29.26,SSE,157,11.0,13.2,23,0.00,,---,1.57,VWS V13.01,2013-02-01 03:34:00,
2013-01-31 22:39:00,30.9,-2.5,29.26,ESE,114,11.0,12.8,23,0.00,,---,1.57,VWS V13.01,2013-02-01 03:39:00,
2013-01-31 22:44:00,30.7,-0.9,29.26,SE,130,10.1,11.0,25,0.00,,---,1.57,VWS V13.01,2013-02-01 03:44:00,
2013-01-31 22:49:00,30.7,-0.9,29.26,SSE,165,4.0,10.5,25,0.00,,---,1.57,VWS V13.01,2013-02-01 03:49:00,
2013-01-31 22:54:00,30.4,-1.2,29.26,South,171,10.1,15.4,25,0.00,,---,1.57,VWS V13.01,2013-02-01 03:54:00,
2013-01-31 22:59:00,30.4,-1.2,29.26,SSE,168,2.7,14.5,25,0.00,,---,0.00,VWS V13.01,2013-02-01 03:59:00,
2013-01-31 23:04:00,30.2,-1.4,29.26,South,182,11.0,17.0,25,0.00,,---,0.00,VWS V13.01,2013-02-01 04:04:00,
2013-01-31 23:09:00,30.0,-3.3,29.26,South,188,10.1,13.2,23,0.00,,---,0.00,VWS V13.01,2013-02-01 04:09:00,
2013-01-31 23:14:00,30.0,-3.3,29.26,SE,131,5.8,10.1,23,0.00,,---,0.00,VWS V13.01,2013-02-01 04:14:00,
2013-01-31 23:19:00,29.8,-3.4,29.26,SSE,167,12.8,13.2,23,0.00,,---,0.00,VWS V13.01,2013-02-01 04:19:00,
2013-01-31 23:24:00,29.8,-3.4,29.26,SE,125,8.1,15.4,23,0.00,,---,0.00,VWS V13.01,2013-02-01 04:24:00,
2013-01-31 23:29:00,29.7,-3.6,29.26,South,172,7.6,13.2,23,0.00,,---,0.00,VWS V13.01,2013-02-01 04:29:00,
2013-01-31 23:34:00,29.7,-3.6,29.26,SSE,150,8.7,11.0,23,0.00,,---,0.00,VWS V13.01,2013-02-01 04:34:00,
2013-01-31 23:39:00,29.7,-3.6,29.26,East,88,11.0,11.0,23,0.00,,---,0.00,VWS V13.01,2013-02-01 04:39:00,
2013-01-31 23:44:00,29.5,-3.7,29.26,SE,146,8.7,12.8,23,0.00,,---,0.00,VWS V13.01,2013-02-01 04:44:00,
2013-01-31 23:49:00,29.5,-3.7,29.26,SSE,155,5.8,14.5,23,0.00,,---,0.00,VWS V13.01,2013-02-01 04:49:00,
2013-01-31 23:54:00,29.5,-3.7,29.26,NNE,24,5.4,12.8,23,0.00,,---,0.00,VWS V13.01,2013-02-01 04:54:00,
2013-01-31 23:59:00,29.5,-3.7,29.26,South,175,8.7,11.0,23,0.00,,---,0.00,VWS V13.01,2013-02-01 04:59:00,